createdAt,value
2019-04-23T00:00:07.665Z,12.80
2019-04-23T00:02:44.408Z,12.80
2019-04-23T00:03:51.632Z,12.80
2019-04-23T00:05:02.464Z,12.80
2019-04-23T00:06:19.195Z,12.80
2019-04-23T00:08:36.267Z,12.70
2019-04-23T00:09:42.351Z,12.70
2019-04-23T00:10:53.727Z,12.70
2019-04-23T00:12:01.811Z,12.70
2019-04-23T00:13:08.779Z,12.60
2019-04-23T00:15:20.407Z,12.60
2019-04-23T00:16:40.819Z,12.60
2019-04-23T00:17:42.523Z,12.50
2019-04-23T00:19:02.430Z,12.50
2019-04-23T00:20:04.534Z,12.50
2019-04-23T00:21:24.823Z,12.50
2019-04-23T00:22:59.896Z,12.50
2019-04-23T00:24:13.809Z,12.40
2019-04-23T00:26:50.395Z,12.40
2019-04-23T00:28:02.149Z,12.40
2019-04-23T00:29:27.956Z,12.40
2019-04-23T00:30:12.983Z,12.30
2019-04-23T00:31:24.323Z,12.30
2019-04-23T00:32:35.046Z,12.30
2019-04-23T00:33:57.413Z,12.20
2019-04-23T00:34:55.796Z,12.20
2019-04-23T00:35:55.141Z,12.20
2019-04-23T00:37:12.861Z,12.20
2019-04-23T00:38:18.200Z,12.20
2019-04-23T00:39:23.506Z,12.20
2019-04-23T00:41:44.277Z,12.10
2019-04-23T00:43:00.609Z,12.10
2019-04-23T00:44:03.617Z,12.10
2019-04-23T00:45:14.175Z,12.00
2019-04-23T00:46:15.205Z,12.00
2019-04-23T00:47:32.862Z,12.00
2019-04-23T00:48:36.459Z,12.00
2019-04-23T00:49:51.592Z,12.00
2019-04-23T00:50:57.460Z,12.00
2019-04-23T00:52:06.151Z,11.90
2019-04-23T00:53:12.694Z,11.90
2019-04-23T00:54:23.108Z,11.90
2019-04-23T00:55:35.144Z,11.90
2019-04-23T00:57:43.433Z,11.90
2019-04-23T00:58:55.217Z,11.80
2019-04-23T01:00:15.099Z,11.80
2019-04-23T01:01:27.480Z,11.80
2019-04-23T01:02:18.358Z,11.80
2019-04-23T01:03:24.349Z,11.80
2019-04-23T01:04:39.732Z,11.80
2019-04-23T01:06:00.604Z,11.70
2019-04-23T01:06:58.296Z,11.70
2019-04-23T01:08:06.263Z,11.70
2019-04-23T01:09:08.494Z,11.70
2019-04-23T01:12:45.893Z,11.60
2019-04-23T01:14:04.361Z,11.60
2019-04-23T01:15:04.749Z,11.60
2019-04-23T01:17:26.436Z,11.60
2019-04-23T01:18:40.955Z,11.60
2019-04-23T01:19:58.043Z,11.50
2019-04-23T01:20:54.192Z,11.50
2019-04-23T01:22:00.139Z,11.50
2019-04-23T01:23:40.338Z,11.50
2019-04-23T01:25:09.722Z,11.50
2019-04-23T01:26:31.094Z,11.50
2019-04-23T01:28:57.427Z,11.50
2019-04-23T01:30:04.734Z,11.40
2019-04-23T01:31:18.547Z,11.40
2019-04-23T01:32:20.850Z,11.40
2019-04-23T01:33:34.907Z,11.30
2019-04-23T01:34:42.302Z,11.30
2019-04-23T01:35:51.002Z,11.30
2019-04-23T01:36:58.956Z,11.30
2019-04-23T01:38:02.518Z,11.30
2019-04-23T01:39:11.765Z,11.30
2019-04-23T01:40:20.497Z,11.20
2019-04-23T01:41:28.581Z,11.20
2019-04-23T01:42:40.577Z,11.20
2019-04-23T01:45:03.368Z,11.20
2019-04-23T01:46:03.049Z,11.20
2019-04-23T01:47:07.787Z,11.10
2019-04-23T01:48:24.355Z,11.10
2019-04-23T01:49:58.204Z,11.10
2019-04-23T01:50:43.883Z,11.10
2019-04-23T01:51:46.848Z,11.10
2019-04-23T01:54:06.917Z,11.10
2019-04-23T01:55:18.369Z,11.00
2019-04-23T01:56:24.217Z,11.00
2019-04-23T01:57:30.851Z,11.00
2019-04-23T01:58:53.514Z,11.00
2019-04-23T01:59:49.441Z,11.00
2019-04-23T02:00:52.898Z,11.00
2019-04-23T02:02:05.438Z,11.00
2019-04-23T02:04:22.986Z,11.00
2019-04-23T02:05:30.580Z,10.90
2019-04-23T02:06:40.616Z,10.90
2019-04-23T02:07:50.885Z,10.90
2019-04-23T02:10:07.125Z,10.90
2019-04-23T02:11:10.202Z,10.90
2019-04-23T02:12:18.084Z,10.90
2019-04-23T02:13:32.314Z,10.90
2019-04-23T02:14:34.793Z,10.90
2019-04-23T02:16:55.914Z,10.90
2019-04-23T02:18:08.497Z,10.90
2019-04-23T02:19:17.021Z,10.90
2019-04-23T02:20:27.851Z,10.90
2019-04-23T02:21:35.121Z,10.80
2019-04-23T02:23:11.411Z,10.80
2019-04-23T02:24:15.961Z,10.80
2019-04-23T02:25:40.913Z,10.80
2019-04-23T02:26:33.941Z,10.80
2019-04-23T02:27:54.388Z,10.70
2019-04-23T02:29:03.659Z,10.80
2019-04-23T02:30:20.741Z,10.70
2019-04-23T02:31:42.205Z,10.70
2019-04-23T02:34:52.437Z,10.70
2019-04-23T02:39:16.159Z,10.70
2019-04-23T02:40:44.677Z,10.70
2019-04-23T02:41:41.375Z,10.70
2019-04-23T02:43:04.985Z,10.70
2019-04-23T02:43:59.250Z,10.70
2019-04-23T02:45:02.653Z,10.60
2019-04-23T02:46:05.582Z,10.70
2019-04-23T02:47:23.136Z,10.60
2019-04-23T02:48:40.579Z,10.60
2019-04-23T02:49:45.770Z,10.60
2019-04-23T02:50:48.371Z,10.60
2019-04-23T02:53:04.752Z,10.60
2019-04-23T02:54:36.710Z,10.60
2019-04-23T02:56:48.685Z,10.60
2019-04-23T02:57:35.407Z,10.60
2019-04-23T03:00:11.691Z,10.50
2019-04-23T03:02:30.243Z,10.50
2019-04-23T03:03:27.948Z,10.60
2019-04-23T03:05:45.516Z,10.50
2019-04-23T03:06:46.314Z,10.50
2019-04-23T03:07:54.218Z,10.50
2019-04-23T03:09:23.408Z,10.60
2019-04-23T03:11:25.809Z,10.50
2019-04-23T03:12:31.836Z,10.50
2019-04-23T03:14:50.555Z,10.50
2019-04-23T03:16:31.749Z,10.40
2019-04-23T03:17:59.086Z,10.50
2019-04-23T03:20:27.489Z,10.50
2019-04-23T03:21:52.302Z,10.50
2019-04-23T03:23:03.194Z,10.50
2019-04-23T03:24:28.569Z,10.40
2019-04-23T03:25:29.875Z,10.40
2019-04-23T03:27:55.915Z,10.40
2019-04-23T03:29:10.606Z,10.40
2019-04-23T03:32:47.390Z,10.40
2019-04-23T03:37:19.787Z,10.30
2019-04-23T03:38:36.311Z,10.30
2019-04-23T03:39:35.791Z,10.30
2019-04-23T03:40:34.953Z,10.30
2019-04-23T03:42:47.671Z,10.30
2019-04-23T03:44:12.677Z,10.30
2019-04-23T03:46:33.935Z,10.20
2019-04-23T03:49:48.737Z,10.30
2019-04-23T03:50:43.557Z,10.20
2019-04-23T03:52:12.065Z,10.20
2019-04-23T03:53:05.172Z,10.20
2019-04-23T03:54:36.137Z,10.20
2019-04-23T03:56:44.704Z,10.20
2019-04-23T03:57:38.010Z,10.20
2019-04-23T03:58:47.428Z,10.30
2019-04-23T04:00:08.573Z,10.20
2019-04-23T04:01:11.917Z,10.20
2019-04-23T04:02:37.804Z,10.20
2019-04-23T04:03:50.262Z,10.20
2019-04-23T04:07:04.527Z,10.20
2019-04-23T04:08:16.531Z,10.10
2019-04-23T04:10:21.696Z,10.20
2019-04-23T04:11:23.071Z,10.20
2019-04-23T04:12:35.517Z,10.20
2019-04-23T04:13:51.351Z,10.20
2019-04-23T04:14:59.156Z,10.10
2019-04-23T04:16:01.282Z,10.10
2019-04-23T04:17:17.886Z,10.10
2019-04-23T04:18:34.793Z,10.10
2019-04-23T04:20:57.630Z,10.20
2019-04-23T04:25:26.855Z,10.20
2019-04-23T04:27:45.293Z,10.10
2019-04-23T04:28:47.199Z,10.10
2019-04-23T04:30:54.397Z,10.10
2019-04-23T04:34:55.599Z,10.10
2019-04-23T04:35:27.252Z,10.10
2019-04-23T04:37:13.957Z,10.10
2019-04-23T04:38:13.021Z,10.10
2019-04-23T04:41:28.995Z,10.10
2019-04-23T04:42:34.101Z,10.10
2019-04-23T04:43:54.150Z,10.10
2019-04-23T04:44:47.759Z,10.10
2019-04-23T04:48:07.285Z,10.10
2019-04-23T04:49:36.892Z,10.10
2019-04-23T04:50:31.349Z,10.10
2019-04-23T04:51:53.619Z,10.20
2019-04-23T04:55:03.197Z,10.20
2019-04-23T04:56:24.358Z,10.20
2019-04-23T04:57:29.775Z,10.30
2019-04-23T04:58:32.237Z,10.20
2019-04-23T04:59:50.259Z,10.20
2019-04-23T05:02:11.676Z,10.30
2019-04-23T05:03:19.458Z,10.30
2019-04-23T05:05:53.018Z,10.40
2019-04-23T05:06:44.711Z,10.40
2019-04-23T05:07:54.371Z,10.40
2019-04-23T05:09:02.160Z,10.40
2019-04-23T05:14:43.934Z,10.50
2019-04-23T05:15:58.153Z,10.60
2019-04-23T05:18:28.737Z,10.60
2019-04-23T05:19:43.888Z,10.60
2019-04-23T05:20:56.405Z,10.70
2019-04-23T05:21:58.939Z,10.60
2019-04-23T05:23:17.986Z,10.70
2019-04-23T05:24:25.348Z,10.70
2019-04-23T05:25:18.025Z,10.70
2019-04-23T05:27:46.330Z,10.70
2019-04-23T05:30:04.667Z,10.80
2019-04-23T05:31:08.665Z,10.90
2019-04-23T05:32:11.978Z,10.90
2019-04-23T05:33:21.779Z,11.00
2019-04-23T05:38:10.372Z,11.00
2019-04-23T05:39:15.484Z,11.10
2019-04-23T05:40:30.203Z,11.10
2019-04-23T05:41:31.935Z,11.10
2019-04-23T05:42:44.501Z,11.10
2019-04-23T05:43:50.982Z,11.20
2019-04-23T05:44:54.248Z,11.20
2019-04-23T05:46:12.749Z,11.20
2019-04-23T05:47:16.049Z,11.20
2019-04-23T05:49:36.179Z,11.30
2019-04-23T05:50:50.613Z,11.30
2019-04-23T05:51:57.429Z,11.40
2019-04-23T05:53:05.330Z,11.40
2019-04-23T05:54:16.597Z,11.40
2019-04-23T05:55:13.239Z,11.40
2019-04-23T05:56:30.120Z,11.50
2019-04-23T05:57:36.166Z,11.50
2019-04-23T05:58:55.769Z,11.50
2019-04-23T05:59:58.947Z,11.50
2019-04-23T06:01:49.335Z,11.50
2019-04-23T06:02:51.749Z,11.60
2019-04-23T06:03:56.750Z,11.70
2019-04-23T06:05:05.992Z,11.70
2019-04-23T06:06:10.551Z,11.70
2019-04-23T06:07:28.748Z,11.80
2019-04-23T06:08:32.197Z,11.90
2019-04-23T06:09:41.710Z,11.90
2019-04-23T06:10:54.148Z,11.90
2019-04-23T06:12:18.779Z,11.90
2019-04-23T06:13:18.676Z,12.00
2019-04-23T06:14:29.097Z,12.00
2019-04-23T06:15:40.256Z,12.10
2019-04-23T06:17:54.175Z,12.10
2019-04-23T06:19:08.064Z,12.20
2019-04-23T06:20:15.138Z,12.20
2019-04-23T06:21:31.145Z,12.20
2019-04-23T06:23:43.904Z,12.30
2019-04-23T06:24:48.853Z,12.30
2019-04-23T06:26:08.510Z,12.40
2019-04-23T06:27:16.586Z,12.40
2019-04-23T06:28:22.360Z,12.50
2019-04-23T06:29:32.240Z,12.50
2019-04-23T06:30:49.063Z,12.50
2019-04-23T06:31:50.783Z,12.60
2019-04-23T06:33:04.269Z,12.70
2019-04-23T06:34:12.066Z,12.70
2019-04-23T06:35:11.336Z,12.80
2019-04-23T06:36:25.639Z,12.80
2019-04-23T06:38:53.770Z,12.90
2019-04-23T06:39:49.849Z,13.00
2019-04-23T06:41:05.826Z,12.90
2019-04-23T06:42:21.206Z,13.00
2019-04-23T06:43:45.963Z,13.00
2019-04-23T06:46:10.391Z,13.10
2019-04-23T06:47:08.597Z,13.10
2019-04-23T06:48:24.087Z,13.10
2019-04-23T06:49:37.603Z,13.20
2019-04-23T06:50:43.372Z,13.20
2019-04-23T06:51:52.206Z,13.30
2019-04-23T06:52:50.014Z,13.30
2019-04-23T06:54:04.864Z,13.40
2019-04-23T06:55:14.895Z,13.40
2019-04-23T06:56:27.810Z,13.50
2019-04-23T06:57:28.498Z,13.50
2019-04-23T06:58:38.969Z,13.50
2019-04-23T06:59:52.667Z,13.50
2019-04-23T07:03:25.105Z,13.70
2019-04-23T07:04:33.167Z,13.70
2019-04-23T07:06:06.984Z,13.70
2019-04-23T07:07:25.098Z,13.80
2019-04-23T07:08:17.087Z,13.90
2019-04-23T07:10:28.319Z,14.00
2019-04-23T07:15:13.025Z,14.00
2019-04-23T07:16:09.194Z,14.10
2019-04-23T07:17:13.333Z,14.10
2019-04-23T07:18:29.361Z,14.20
2019-04-23T07:20:53.601Z,14.40
2019-04-23T07:22:03.366Z,14.40
2019-04-23T07:23:07.918Z,14.40
2019-04-23T07:24:18.201Z,14.50
2019-04-23T07:27:33.289Z,14.60
2019-04-23T07:29:04.995Z,14.60
2019-04-23T07:30:03.883Z,14.60
2019-04-23T07:31:14.262Z,14.70
2019-04-23T07:32:10.999Z,14.70
2019-04-23T07:33:29.895Z,14.80
2019-04-23T07:34:30.340Z,14.80
2019-04-23T07:35:45.424Z,14.80
2019-04-23T07:36:53.725Z,14.80
2019-04-23T07:39:27.439Z,14.90
2019-04-23T07:40:41.692Z,14.90
2019-04-23T07:43:32.315Z,15.10
2019-04-23T07:45:02.481Z,15.10
2019-04-23T07:46:30.583Z,15.00
2019-04-23T07:48:06.579Z,15.00
2019-04-23T07:49:11.779Z,15.00
2019-04-23T07:51:32.663Z,15.10
2019-04-23T07:52:44.087Z,15.10
2019-04-23T07:53:46.093Z,15.10
2019-04-23T07:55:02.712Z,15.10
2019-04-23T07:57:18.641Z,15.30
2019-04-23T07:59:35.331Z,15.30
2019-04-23T08:00:48.955Z,15.40
2019-04-23T08:01:51.223Z,15.40
2019-04-23T08:03:06.929Z,15.40
2019-04-23T08:04:01.831Z,15.50
2019-04-23T08:05:25.147Z,15.60
2019-04-23T08:06:17.801Z,15.50
2019-04-23T08:07:37.814Z,15.60
2019-04-23T08:08:39.919Z,15.60
2019-04-23T08:09:54.700Z,15.60
2019-04-23T08:11:34.337Z,15.60
2019-04-23T08:12:25.575Z,15.50
2019-04-23T08:13:42.401Z,15.50
2019-04-23T08:14:40.862Z,15.50
2019-04-23T08:15:46.593Z,15.60
2019-04-23T08:16:50.334Z,15.60
2019-04-23T08:18:07.212Z,15.60
2019-04-23T08:19:22.654Z,15.70
2019-04-23T08:20:22.037Z,15.80
2019-04-23T08:21:32.918Z,15.80
2019-04-23T08:22:40.219Z,15.80
2019-04-23T08:24:10.414Z,15.80
2019-04-23T08:25:48.863Z,15.90
2019-04-23T08:28:20.664Z,15.80
2019-04-23T08:30:25.541Z,15.90
2019-04-23T08:31:43.930Z,15.90
2019-04-23T08:32:49.253Z,15.90
2019-04-23T08:34:12.350Z,16.00
2019-04-23T08:35:03.111Z,16.00
2019-04-23T08:37:26.907Z,16.20
2019-04-23T08:38:37.897Z,16.20
2019-04-23T08:40:55.598Z,16.20
2019-04-23T08:42:21.628Z,16.20
2019-04-23T08:43:32.933Z,16.10
2019-04-23T08:45:11.577Z,16.20
2019-04-23T08:46:14.070Z,16.20
2019-04-23T08:47:29.957Z,16.30
2019-04-23T08:50:54.676Z,16.40
2019-04-23T08:52:09.553Z,16.50
2019-04-23T08:53:31.311Z,16.50
2019-04-23T08:54:39.734Z,16.60
2019-04-23T08:56:40.641Z,16.90
2019-04-23T08:57:43.132Z,16.90
2019-04-23T08:58:59.320Z,16.90
2019-04-23T09:00:02.838Z,16.90
2019-04-23T09:01:09.481Z,16.90
2019-04-23T09:02:31.291Z,16.80
2019-04-23T09:05:53.043Z,16.90
2019-04-23T09:07:04.494Z,16.90
2019-04-23T09:08:15.580Z,17.00
2019-04-23T09:09:18.066Z,17.00
2019-04-23T09:10:30.065Z,17.10
2019-04-23T09:11:44.039Z,17.10
2019-04-23T09:15:00.829Z,17.30
2019-04-23T09:16:03.461Z,17.10
2019-04-23T09:18:23.106Z,17.00
2019-04-23T09:19:32.282Z,17.10
2019-04-23T09:21:59.179Z,17.10
2019-04-23T09:22:53.082Z,17.20
2019-04-23T09:24:03.721Z,17.30
2019-04-23T09:25:20.296Z,17.20
2019-04-23T09:26:13.789Z,17.30
2019-04-23T09:27:33.217Z,17.30
2019-04-23T09:28:48.285Z,17.30
2019-04-23T09:31:08.977Z,17.50
2019-04-23T09:33:46.896Z,17.60
2019-04-23T09:35:14.350Z,17.70
2019-04-23T09:38:04.125Z,18.00
2019-04-23T09:42:32.439Z,18.30
2019-04-23T09:44:27.433Z,18.40
2019-04-23T09:45:23.282Z,18.50
2019-04-23T09:47:00.764Z,18.40
2019-04-23T09:48:17.750Z,18.40
2019-04-23T09:49:22.614Z,18.40
2019-04-23T09:50:33.453Z,18.20
2019-04-23T09:51:36.546Z,18.20
2019-04-23T09:53:51.393Z,18.40
2019-04-23T09:55:06.080Z,18.50
2019-04-23T09:56:07.102Z,18.50
2019-04-23T09:57:16.045Z,18.40
2019-04-23T09:58:22.297Z,18.40
2019-04-23T09:59:41.256Z,18.40
2019-04-23T10:01:49.914Z,18.40
2019-04-23T10:02:59.130Z,18.40
2019-04-23T10:04:00.067Z,18.40
2019-04-23T10:05:11.121Z,18.40
2019-04-23T10:06:12.644Z,18.50
2019-04-23T10:07:27.147Z,18.60
2019-04-23T10:08:29.624Z,18.60
2019-04-23T10:09:32.315Z,18.70
2019-04-23T10:10:40.509Z,18.70
2019-04-23T10:11:49.289Z,18.70
2019-04-23T10:12:57.994Z,18.50
2019-04-23T10:14:06.160Z,18.60
2019-04-23T10:15:21.706Z,18.60
2019-04-23T10:16:25.350Z,18.60
2019-04-23T10:17:31.923Z,18.60
2019-04-23T10:18:39.321Z,18.60
2019-04-23T10:19:46.724Z,18.60
2019-04-23T10:20:54.293Z,18.70
2019-04-23T10:22:01.764Z,18.70
2019-04-23T10:23:10.257Z,18.80
2019-04-23T10:24:19.056Z,18.80
2019-04-23T10:25:27.801Z,18.80
2019-04-23T10:26:34.879Z,18.90
2019-04-23T10:27:43.225Z,18.90
2019-04-23T10:29:02.127Z,19.00
2019-04-23T10:30:10.191Z,18.90
2019-04-23T10:31:18.724Z,19.00
2019-04-23T10:32:27.297Z,19.00
2019-04-23T10:33:34.425Z,19.00
2019-04-23T10:34:50.842Z,19.10
2019-04-23T10:35:58.407Z,19.00
2019-04-23T10:36:59.635Z,19.00
2019-04-23T10:38:10.910Z,19.10
2019-04-23T10:39:23.259Z,19.20
2019-04-23T10:40:32.233Z,19.20
2019-04-23T10:41:35.813Z,19.20
2019-04-23T10:42:46.033Z,19.20
2019-04-23T10:44:11.072Z,19.30
2019-04-23T10:45:42.587Z,19.30
2019-04-23T10:47:32.090Z,19.60
2019-04-23T10:49:31.785Z,19.60
2019-04-23T10:50:35.485Z,19.50
2019-04-23T10:51:51.035Z,19.40
2019-04-23T10:52:56.643Z,19.30
2019-04-23T10:54:02.801Z,19.20
2019-04-23T10:55:06.505Z,19.20
2019-04-23T10:56:28.788Z,19.30
2019-04-23T10:57:19.928Z,19.30
2019-04-23T10:58:35.312Z,19.30
2019-04-23T11:01:01.718Z,19.30
2019-04-23T11:02:36.712Z,19.30
2019-04-23T11:03:42.457Z,19.30
2019-04-23T11:05:50.345Z,19.30
2019-04-23T11:06:51.983Z,19.30
2019-04-23T11:07:53.606Z,19.40
2019-04-23T11:09:32.220Z,19.50
2019-04-23T11:10:19.371Z,19.60
2019-04-23T11:11:27.772Z,19.60
2019-04-23T11:14:09.691Z,19.50
2019-04-23T11:17:38.368Z,19.60
2019-04-23T11:20:01.480Z,19.70
2019-04-23T11:21:07.120Z,19.70
2019-04-23T11:22:28.187Z,19.70
2019-04-23T11:23:15.152Z,19.70
2019-04-23T11:24:38.149Z,19.80
2019-04-23T11:26:49.576Z,20.00
2019-04-23T11:27:59.769Z,20.10
2019-04-23T11:29:16.373Z,19.90
2019-04-23T11:30:27.440Z,19.80
2019-04-23T11:31:46.726Z,19.70
2019-04-23T11:33:54.274Z,19.90
2019-04-23T11:39:43.068Z,20.00
2019-04-23T11:40:49.086Z,19.90
2019-04-23T11:41:51.263Z,19.90
2019-04-23T11:43:13.116Z,19.80
2019-04-23T11:44:17.218Z,19.90
2019-04-23T11:45:26.099Z,19.90
2019-04-23T11:46:42.759Z,19.90
2019-04-23T11:48:06.639Z,19.90
2019-04-23T11:48:52.339Z,20.10
2019-04-23T11:52:17.790Z,20.40
2019-04-23T11:53:22.911Z,20.50
2019-04-23T11:54:25.693Z,20.50
2019-04-23T11:58:10.276Z,20.60
2019-04-23T11:59:25.572Z,20.70
2019-04-23T12:00:13.845Z,20.60
2019-04-23T12:01:53.321Z,20.50
2019-04-23T12:03:22.038Z,20.50
2019-04-23T12:05:00.844Z,20.40
2019-04-23T12:06:20.848Z,20.40
2019-04-23T12:07:39.867Z,20.50
2019-04-23T12:08:48.858Z,20.40
2019-04-23T12:10:07.527Z,20.40
2019-04-23T12:11:46.862Z,20.30
2019-04-23T12:12:31.158Z,20.30
2019-04-23T12:13:45.635Z,20.30
2019-04-23T12:14:50.817Z,20.40
2019-04-23T12:16:12.963Z,20.50
2019-04-23T12:17:24.912Z,20.50
2019-04-23T12:18:32.035Z,20.60
2019-04-23T12:19:57.730Z,20.60
2019-04-23T12:20:39.763Z,20.80
2019-04-23T12:22:03.552Z,20.80
2019-04-23T12:23:19.356Z,20.90
2019-04-23T12:24:38.202Z,21.00
2019-04-23T12:26:36.971Z,21.00
2019-04-23T12:27:33.179Z,20.90
2019-04-23T12:28:53.644Z,20.80
2019-04-23T12:31:10.090Z,20.80
2019-04-23T12:33:43.900Z,20.50
2019-04-23T12:36:12.043Z,20.50
2019-04-23T12:37:22.674Z,20.50
2019-04-23T12:39:35.487Z,20.60
2019-04-23T12:40:44.322Z,20.60
2019-04-23T12:42:11.294Z,20.50
2019-04-23T12:43:05.629Z,20.50
2019-04-23T12:44:16.256Z,20.60
2019-04-23T12:46:29.963Z,20.50
2019-04-23T12:49:03.205Z,20.50
2019-04-23T12:50:31.056Z,20.50
2019-04-23T12:50:57.101Z,20.60
2019-04-23T12:52:34.267Z,20.50
2019-04-23T12:53:27.634Z,20.60
2019-04-23T12:54:43.212Z,20.70
2019-04-23T12:55:40.571Z,20.80
2019-04-23T12:57:01.181Z,20.80
2019-04-23T12:57:52.358Z,20.80
2019-04-23T12:59:12.423Z,20.70
2019-04-23T13:01:22.635Z,20.60
2019-04-23T13:02:39.796Z,20.70
2019-04-23T13:03:41.313Z,20.60
2019-04-23T13:04:55.073Z,20.60
2019-04-23T13:05:51.428Z,20.40
2019-04-23T13:07:11.322Z,20.50
2019-04-23T13:08:30.653Z,20.60
2019-04-23T13:10:40.001Z,20.80
2019-04-23T13:11:45.637Z,20.90
2019-04-23T13:14:06.920Z,21.00
2019-04-23T13:15:18.784Z,21.00
2019-04-23T13:16:25.359Z,21.10
2019-04-23T13:17:39.700Z,21.00
2019-04-23T13:18:39.841Z,21.00
2019-04-23T13:20:51.603Z,20.90
2019-04-23T13:22:14.327Z,20.80
2019-04-23T13:23:16.907Z,20.90
2019-04-23T13:24:43.717Z,20.80
2019-04-23T13:27:20.477Z,21.00
2019-04-23T13:28:21.727Z,20.90
2019-04-23T13:29:38.133Z,21.00
2019-04-23T13:30:46.637Z,21.00
2019-04-23T13:31:49.686Z,21.00
2019-04-23T13:33:12.568Z,20.90
2019-04-23T13:34:13.472Z,20.90
2019-04-23T13:36:34.869Z,20.90
2019-04-23T13:37:43.105Z,20.80
2019-04-23T13:38:47.325Z,20.80
2019-04-23T13:39:52.331Z,20.70
2019-04-23T13:41:09.192Z,20.80
2019-04-23T13:42:23.165Z,20.80
2019-04-23T13:43:29.659Z,20.80
2019-04-23T13:44:35.447Z,20.90
2019-04-23T13:45:59.986Z,20.90
2019-04-23T13:46:52.527Z,21.00
2019-04-23T13:48:01.236Z,20.90
2019-04-23T13:49:03.840Z,20.90
2019-04-23T13:52:59.713Z,21.20
2019-04-23T13:55:02.891Z,21.20
2019-04-23T13:55:52.850Z,21.20
2019-04-23T13:58:26.724Z,21.10
2019-04-23T13:59:39.245Z,21.00
2019-04-23T14:01:41.127Z,20.90
2019-04-23T14:02:58.034Z,20.90
2019-04-23T14:04:14.255Z,20.90
2019-04-23T14:05:33.293Z,21.00
2019-04-23T14:10:17.653Z,21.30
2019-04-23T14:11:26.324Z,21.40
2019-04-23T14:12:31.970Z,21.30
2019-04-23T14:15:12.466Z,21.20
2019-04-23T14:17:31.670Z,21.20
2019-04-23T14:19:23.014Z,21.10
2019-04-23T14:20:40.692Z,21.10
2019-04-23T14:21:44.465Z,21.10
2019-04-23T14:23:09.090Z,21.20
2019-04-23T14:24:18.054Z,21.30
2019-04-23T14:25:11.409Z,21.30
2019-04-23T14:26:34.128Z,21.30
2019-04-23T14:29:56.564Z,21.30
2019-04-23T14:31:00.618Z,21.30
2019-04-23T14:32:22.387Z,21.30
2019-04-23T14:33:26.456Z,21.40
2019-04-23T14:34:43.974Z,21.60
2019-04-23T14:36:50.265Z,21.50
2019-04-23T14:38:09.853Z,21.40
2019-04-23T14:39:07.762Z,21.50
2019-04-23T14:40:22.232Z,21.50
2019-04-23T14:41:31.924Z,21.50
2019-04-23T14:43:48.898Z,21.50
2019-04-23T14:45:08.186Z,21.50
2019-04-23T14:46:27.201Z,21.50
2019-04-23T14:48:23.336Z,21.50
2019-04-23T14:49:53.997Z,21.50
2019-04-23T14:50:54.545Z,21.70
2019-04-23T14:53:24.366Z,21.80
2019-04-23T14:54:34.625Z,21.70
2019-04-23T14:56:59.239Z,21.60
2019-04-23T14:59:13.540Z,21.60
2019-04-23T15:00:15.622Z,21.60
2019-04-23T15:01:35.416Z,21.70
2019-04-23T15:02:25.735Z,21.60
2019-04-23T15:03:42.579Z,21.60
2019-04-23T15:04:43.684Z,21.60
2019-04-23T15:06:06.123Z,21.70
2019-04-23T15:07:12.873Z,21.80
2019-04-23T15:08:04.034Z,21.80
2019-04-23T15:10:29.560Z,21.70
2019-04-23T15:11:44.140Z,21.70
2019-04-23T15:12:48.620Z,21.80
2019-04-23T15:13:49.758Z,22.00
2019-04-23T15:15:10.483Z,22.00
2019-04-23T15:18:55.172Z,22.00
2019-04-23T15:21:31.478Z,21.90
2019-04-23T15:26:58.871Z,22.00
2019-04-23T15:27:44.114Z,21.50
2019-04-23T15:28:52.385Z,21.40
2019-04-23T15:30:09.159Z,21.30
2019-04-23T15:31:28.485Z,21.50
2019-04-23T15:32:45.294Z,21.50
2019-04-23T15:33:57.300Z,21.50
2019-04-23T15:36:27.187Z,21.50
2019-04-23T15:37:34.621Z,21.60
2019-04-23T15:38:37.707Z,21.60
2019-04-23T15:39:31.323Z,21.50
2019-04-23T15:41:01.841Z,21.60
2019-04-23T15:43:05.396Z,21.60
2019-04-23T15:44:10.741Z,21.70
2019-04-23T15:45:15.452Z,21.70
2019-04-23T15:47:33.376Z,21.80
2019-04-23T15:48:43.689Z,21.80
2019-04-23T15:49:51.393Z,21.80
2019-04-23T15:51:06.195Z,21.70
2019-04-23T15:52:10.545Z,21.70
2019-04-23T15:53:04.889Z,21.70
2019-04-23T15:54:29.955Z,21.90
2019-04-23T15:55:36.870Z,21.90
2019-04-23T15:59:16.618Z,21.80
2019-04-23T16:00:10.050Z,21.80
2019-04-23T16:01:31.903Z,21.90
2019-04-23T16:02:01.007Z,21.80
2019-04-23T16:03:10.141Z,21.80
2019-04-23T16:04:19.813Z,21.80
2019-04-23T16:05:27.741Z,21.80
2019-04-23T16:06:37.056Z,21.90
2019-04-23T16:08:01.799Z,21.90
2019-04-23T16:09:11.980Z,21.80
2019-04-23T16:10:32.765Z,21.90
2019-04-23T16:11:47.030Z,21.80
2019-04-23T16:12:54.285Z,21.80
2019-04-23T16:14:10.216Z,21.80
2019-04-23T16:16:18.369Z,21.90
2019-04-23T16:18:56.773Z,22.00
2019-04-23T16:20:16.801Z,21.90
2019-04-23T16:21:29.357Z,21.90
2019-04-23T16:22:31.556Z,22.00
2019-04-23T16:24:00.972Z,22.00
2019-04-23T16:24:55.531Z,22.00
2019-04-23T16:26:01.895Z,22.00
2019-04-23T16:27:13.836Z,22.00
2019-04-23T16:28:25.771Z,22.00
2019-04-23T16:30:34.708Z,21.90
2019-04-23T16:31:58.839Z,21.80
2019-04-23T16:36:05.594Z,21.80
2019-04-23T16:39:19.696Z,21.70
2019-04-23T16:40:36.271Z,21.70
2019-04-23T16:41:46.723Z,21.70
2019-04-23T16:42:59.676Z,21.70
2019-04-23T16:44:03.683Z,21.70
2019-04-23T16:45:11.030Z,21.70
2019-04-23T16:46:17.778Z,21.70
2019-04-23T16:49:50.597Z,21.60
2019-04-23T16:51:12.276Z,21.50
2019-04-23T16:52:08.220Z,21.40
2019-04-23T16:55:39.905Z,21.20
2019-04-23T16:57:01.177Z,21.10
2019-04-23T16:57:54.129Z,21.10
2019-04-23T16:59:11.765Z,21.00
2019-04-23T17:00:25.975Z,21.00
2019-04-23T17:01:12.545Z,21.00
2019-04-23T17:02:24.448Z,21.00
2019-04-23T17:04:53.036Z,21.00
2019-04-23T17:05:57.188Z,20.90
2019-04-23T17:08:31.026Z,20.80
2019-04-23T17:09:21.404Z,20.70
2019-04-23T17:10:32.814Z,20.70
2019-04-23T17:11:34.320Z,20.70
2019-04-23T17:12:46.329Z,20.60
2019-04-23T17:13:54.155Z,20.60
2019-04-23T17:15:02.781Z,20.60
2019-04-23T17:17:15.544Z,20.50
2019-04-23T17:20:47.630Z,20.40
2019-04-23T17:21:57.309Z,20.40
2019-04-23T17:23:07.411Z,20.30
2019-04-23T17:25:20.552Z,20.40
2019-04-23T17:27:41.518Z,20.30
2019-04-23T17:28:44.508Z,20.30
2019-04-23T17:31:26.574Z,20.30
2019-04-23T17:32:15.173Z,20.20
2019-04-23T17:33:38.282Z,20.20
2019-04-23T17:34:55.100Z,20.20
2019-04-23T17:36:13.212Z,20.20
2019-04-23T17:37:21.745Z,20.20
2019-04-23T17:38:23.325Z,20.10
2019-04-23T17:39:43.851Z,20.10
2019-04-23T17:41:07.348Z,20.10
2019-04-23T17:42:39.320Z,20.10
2019-04-23T17:43:54.552Z,20.10
2019-04-23T17:46:05.360Z,20.00
2019-04-23T17:47:35.496Z,20.00
2019-04-23T17:48:50.112Z,19.90
2019-04-23T17:50:11.672Z,19.90
2019-04-23T17:51:11.545Z,19.90
2019-04-23T17:53:25.337Z,19.80
2019-04-23T17:54:32.219Z,19.80
2019-04-23T17:55:46.323Z,19.80
2019-04-23T17:57:01.829Z,19.80
2019-04-23T17:58:07.480Z,19.80
2019-04-23T17:59:17.268Z,19.70
2019-04-23T18:00:32.909Z,19.70
2019-04-23T18:01:25.652Z,19.60
2019-04-23T18:05:13.050Z,19.60
2019-04-23T18:06:21.318Z,19.70
2019-04-23T18:07:18.980Z,19.60
2019-04-23T18:09:37.109Z,19.50
2019-04-23T18:10:48.627Z,19.50
2019-04-23T18:11:53.877Z,19.50
2019-04-23T18:12:56.642Z,19.50
2019-04-23T18:15:13.043Z,19.40
2019-04-23T18:16:30.344Z,19.40
2019-04-23T18:17:54.642Z,19.30
2019-04-23T18:20:05.268Z,19.30
2019-04-23T18:22:48.102Z,19.20
2019-04-23T18:24:41.434Z,19.20
2019-04-23T18:25:43.627Z,19.10
2019-04-23T18:27:05.189Z,19.00
2019-04-23T18:28:08.574Z,19.00
2019-04-23T18:29:42.145Z,18.90
2019-04-23T18:30:58.996Z,18.90
2019-04-23T18:32:17.880Z,18.90
2019-04-23T18:35:58.125Z,18.80
2019-04-23T18:37:17.929Z,18.80
2019-04-23T18:38:26.094Z,18.80
2019-04-23T18:39:29.112Z,18.80
2019-04-23T18:40:54.340Z,18.70
2019-04-23T18:41:51.538Z,18.70
2019-04-23T18:43:07.320Z,18.60
2019-04-23T18:45:29.532Z,18.60
2019-04-23T18:47:44.546Z,18.60
2019-04-23T18:49:58.608Z,18.50
2019-04-23T18:52:27.596Z,18.50
2019-04-23T18:53:38.053Z,18.40
2019-04-23T18:54:32.931Z,18.40
2019-04-23T18:55:58.850Z,18.40
2019-04-23T18:57:01.995Z,18.40
2019-04-23T18:57:56.898Z,18.40
2019-04-23T18:59:30.764Z,18.30
2019-04-23T19:00:16.820Z,18.30
2019-04-23T19:01:32.553Z,18.30
2019-04-23T19:03:11.642Z,18.20
2019-04-23T19:05:41.294Z,18.20